Roswell International Air Center Airport Roswell US
ICAO: KROW
IATA: ROW
Category: Medium
Scheduled Services: Yes

Elevation: 3671 ft
TransAlt. 18000 ft.

Airport Communications:
APP/DEP:119.6
ATIS:128.45
CLNC DEL:132.875
CTAF:118.5
GND:121.9
ALBUQUERQUE RDO:122.45
TWR:118.5
UNICOM:122.95

KROW Zoom In..

Runways:

(A) RW 03 length 13001 ft width 150 ft
---- / hdg 35

(B) RW 17 length 9999 ft width 100 ft
---- / hdg 170

(C) RW 21 length 13001 ft width 150 ft
ILS 109.90 / hdg 215

(D) RW 35 length 9999 ft width 100 ft
---- / hdg 350

Location; KROW
Day. 04 / Time. 12.51 Zulu
* Altimeter: 30.26
* Temperature: -06° c. -21.2°f.
* Wind from: 270° Speed 04 kn.
Dewpoint: -13° c.
Visibility: 10 Statute Miles.
Clouds: Clear (automated report).

KROW 041251Z 27004KT 10SM CLR M06/M13 A3026 RMK AO2 SLP253 T10611133

Going to: --> -->


Wind From 270°
Speed 04 kn.

 
 
jpsmedia worldairports.se 2020   terms of use